Alesund, Norway

10:46 AM CEST on August 20, 2014 (GMT +0200)
Vigra | Change Station
CLOSE
Current Station
Airport
Location: Alesund,
Elevation: 72 ft
Nearby Weather Stations

Elev 72 ft 62.56 °N, 6.11 °E | Updated 26 minutes ago

Rain
Rain
52 °F
Feels Like 52 °F
N
9
Wind Variable Wind from North

Today
High -- | Low -- °F
--% Chance of Precip.
Yesterday
High -- | Low -- °F
Precip. -- in
5:49 AM 9:26 PM
Waning Crescent, 23% visible
Pressure 29.53 in
Visibility 5.0 miles
Clouds Few 200 ft
Mostly Cloudy 900 ft
Dew Point 52 °F
Humidity 100%
Rainfall 0.00 in
Snow Depth Not available.
UV 1 out of 12
Pollen Not available.
Air Quality Not available.
Flu Activity Not available.
METAR ENAL 200820Z 01008KT 330V050 8000 RA FEW002 BKN009 11/11 Q1000

More Conditions Fewer Conditions

Pressure 29.53 in
Visibility 5.0 miles
Clouds Few 200 ft
Mostly Cloudy 900 ft
Dew Point 52 °F
Humidity 100%
Rainfall 0.00 in
Snow Depth Not available.
UV 1 out of 12
Pollen Not available.
Air Quality Not available.
Flu Activity Not available.
METAR ENAL 200820Z 01008KT 330V050 8000 RA FEW002 BKN009 11/11 Q1000

More Conditions Fewer Conditions

10-Day Weather Forecast

Almanac

Astronomy

Aug. 20, 2014 Rise Set
Actual Time 5:49 AM CEST 9:26 PM CEST
Civil Twilight 4:53 AM CEST 10:21 PM CEST
Nautical Twilight 3:27 AM CEST 11:45 PM CEST
Astronomical Twilight Sun does not rise Sun does not rise
Moon 12:38 AM CEST 6:35 PM CEST
Length of Visible Light 17h 27m
Length of Day
15h 36m
Tomorrow will be 6m 1s shorter.
Waning Crescent, 23% of the Moon is Illuminated
Today
Waning Crescent
Aug 25
New
Sep 2
First Quarter
Sep 8
Full
Sep 15
Last Quarter

Yesterday's Extremes

Country Highs Country Lows

Community

WunderPhotos

Upload Photos

1,745,600 photos uploaded!

Nearby

Snow Depth

Not available.

Earthquake Activity

City Distance Mag. Time & Date
No recent earthquake activity has been reported nearby.
Minimum magnitude displayed is 2.5.

Coastal Water Temperatures

Place Temperature
No Stations Reporting

Nearby Weather Stations